sensor_id;sensor_type;location;lat;lon;timestamp;pressure;altitude;pressure_sealevel;temperature;humidity
6668;BME280;3370;47.712;9.082;2023-05-07T00:00:04;96879.88;;;14.14;94.25
6668;BME280;3370;47.712;9.082;2023-05-07T00:02:33;96887.28;;;14.20;93.48
6668;BME280;3370;47.712;9.082;2023-05-07T00:04:59;96890.63;;;14.08;93.57
6668;BME280;3370;47.712;9.082;2023-05-07T00:07:25;96890.06;;;13.88;95.09
6668;BME280;3370;47.712;9.082;2023-05-07T00:09:51;96882.16;;;13.77;96.75
6668;BME280;3370;47.712;9.082;2023-05-07T00:12:16;96889.00;;;13.78;97.59
6668;BME280;3370;47.712;9.082;2023-05-07T00:14:42;96888.06;;;13.79;96.16
6668;BME280;3370;47.712;9.082;2023-05-07T00:17:08;96890.81;;;13.76;97.00
6668;BME280;3370;47.712;9.082;2023-05-07T00:19:34;96899.97;;;13.67;97.46
6668;BME280;3370;47.712;9.082;2023-05-07T00:22:00;96899.25;;;13.65;97.82
6668;BME280;3370;47.712;9.082;2023-05-07T00:24:25;96888.53;;;13.71;97.21
6668;BME280;3370;47.712;9.082;2023-05-07T00:26:51;96888.59;;;13.70;97.17
6668;BME280;3370;47.712;9.082;2023-05-07T00:29:18;96880.38;;;13.63;97.44
6668;BME280;3370;47.712;9.082;2023-05-07T00:31:44;96867.75;;;13.58;97.49
6668;BME280;3370;47.712;9.082;2023-05-07T00:34:09;96867.13;;;13.55;97.89
6668;BME280;3370;47.712;9.082;2023-05-07T00:36:35;96860.00;;;13.58;97.75
6668;BME280;3370;47.712;9.082;2023-05-07T00:39:01;96871.09;;;13.75;96.15
6668;BME280;3370;47.712;9.082;2023-05-07T00:41:29;96862.31;;;13.63;96.07
6668;BME280;3370;47.712;9.082;2023-05-07T00:43:56;96858.44;;;13.56;97.50
6668;BME280;3370;47.712;9.082;2023-05-07T00:46:23;96864.88;;;13.63;96.64
6668;BME280;3370;47.712;9.082;2023-05-07T00:48:50;96862.78;;;13.55;97.53
6668;BME280;3370;47.712;9.082;2023-05-07T00:51:17;96864.16;;;13.61;96.58
6668;BME280;3370;47.712;9.082;2023-05-07T00:53:43;96864.22;;;13.45;97.57
6668;BME280;3370;47.712;9.082;2023-05-07T00:56:10;96865.81;;;13.33;99.15
6668;BME280;3370;47.712;9.082;2023-05-07T00:58:36;96870.22;;;13.31;100.00
6668;BME280;3370;47.712;9.082;2023-05-07T01:01:02;96867.94;;;13.41;99.70
6668;BME280;3370;47.712;9.082;2023-05-07T01:03:28;96865.91;;;13.46;99.00
6668;BME280;3370;47.712;9.082;2023-05-07T01:05:55;96864.34;;;13.44;99.56
6668;BME280;3370;47.712;9.082;2023-05-07T01:08:23;96863.69;;;13.40;100.00
6668;BME280;3370;47.712;9.082;2023-05-07T01:10:52;96865.16;;;13.44;99.74
6668;BME280;3370;47.712;9.082;2023-05-07T01:13:19;96871.09;;;13.30;100.00
6668;BME280;3370;47.712;9.082;2023-05-07T01:15:45;96869.56;;;13.28;100.00
6668;BME280;3370;47.712;9.082;2023-05-07T01:18:11;96864.31;;;13.29;100.00
6668;BME280;3370;47.712;9.082;2023-05-07T01:20:36;96871.56;;;13.22;100.00
6668;BME280;3370;47.712;9.082;2023-05-07T01:23:03;96868.72;;;13.27;100.00
6668;BME280;3370;47.712;9.082;2023-05-07T01:25:29;96880.03;;;13.40;100.00
6668;BME280;3370;47.712;9.082;2023-05-07T01:27:56;96877.28;;;13.28;100.00
6668;BME280;3370;47.712;9.082;2023-05-07T01:30:22;96880.41;;;13.18;100.00
6668;BME280;3370;47.712;9.082;2023-05-07T01:32:52;96874.53;;;13.16;100.00
6668;BME280;3370;47.712;9.082;2023-05-07T01:35:21;96872.28;;;13.10;100.00
6668;BME280;3370;47.712;9.082;2023-05-07T01:37:48;96870.63;;;13.09;100.00
6668;BME280;3370;47.712;9.082;2023-05-07T01:40:15;96870.63;;;13.09;100.00
6668;BME280;3370;47.712;9.082;2023-05-07T01:42:43;96872.47;;;13.07;100.00
6668;BME280;3370;47.712;9.082;2023-05-07T01:45:09;96873.28;;;13.08;100.00
6668;BME280;3370;47.712;9.082;2023-05-07T01:47:37;96870.63;;;13.09;100.00
6668;BME280;3370;47.712;9.082;2023-05-07T01:50:05;96865.63;;;13.06;100.00
6668;BME280;3370;47.712;9.082;2023-05-07T01:52:31;96870.06;;;13.04;100.00
6668;BME280;3370;47.712;9.082;2023-05-07T01:54:57;96865.81;;;13.03;100.00
6668;BME280;3370;47.712;9.082;2023-05-07T01:57:23;96866.81;;;13.00;100.00
6668;BME280;3370;47.712;9.082;2023-05-07T01:59:48;96864.16;;;13.02;100.00
6668;BME280;3370;47.712;9.082;2023-05-07T02:02:14;96872.94;;;13.14;100.00
6668;BME280;3370;47.712;9.082;2023-05-07T02:04:40;96869.13;;;13.05;100.00
6668;BME280;3370;47.712;9.082;2023-05-07T02:07:06;96877.59;;;12.93;100.00
6668;BME280;3370;47.712;9.082;2023-05-07T02:09:32;96872.59;;;12.90;100.00
6668;BME280;3370;47.712;9.082;2023-05-07T02:11:57;96870.75;;;12.92;100.00
6668;BME280;3370;47.712;9.082;2023-05-07T02:14:23;96870.09;;;12.88;100.00
6668;BME280;3370;47.712;9.082;2023-05-07T02:16:49;96872.38;;;12.78;100.00
6668;BME280;3370;47.712;9.082;2023-05-07T02:19:15;96874.13;;;12.78;100.00
6668;BME280;3370;47.712;9.082;2023-05-07T02:21:41;96877.34;;;12.81;100.00
6668;BME280;3370;47.712;9.082;2023-05-07T02:24:07;96874.56;;;12.70;100.00
6668;BME280;3370;47.712;9.082;2023-05-07T02:26:33;96871.81;;;12.73;100.00
6668;BME280;3370;47.712;9.082;2023-05-07T02:28:59;96876.41;;;12.68;100.00
6668;BME280;3370;47.712;9.082;2023-05-07T02:31:25;96870.13;;;12.72;100.00
6668;BME280;3370;47.712;9.082;2023-05-07T02:33:51;96870.13;;;12.72;100.00
6668;BME280;3370;47.712;9.082;2023-05-07T02:36:16;96867.75;;;12.69;100.00
6668;BME280;3370;47.712;9.082;2023-05-07T02:38:42;96873.25;;;12.63;100.00
6668;BME280;3370;47.712;9.082;2023-05-07T02:41:08;96877.56;;;12.62;100.00
6668;BME280;3370;47.712;9.082;2023-05-07T02:43:34;96874.91;;;12.64;100.00
6668;BME280;3370;47.712;9.082;2023-05-07T02:46:09;96876.91;;;12.59;100.00
6668;BME280;3370;47.712;9.082;2023-05-07T02:48:35;96878.91;;;12.70;100.00
6668;BME280;3370;47.712;9.082;2023-05-07T02:51:02;96876.03;;;12.74;100.00
6668;BME280;3370;47.712;9.082;2023-05-07T02:53:28;96878.91;;;12.70;100.00
6668;BME280;3370;47.712;9.082;2023-05-07T02:55:59;96881.78;;;12.63;100.00
6668;BME280;3370;47.712;9.082;2023-05-07T02:58:26;96883.31;;;12.52;100.00
6668;BME280;3370;47.712;9.082;2023-05-07T03:00:52;96891.22;;;12.49;100.00
6668;BME280;3370;47.712;9.082;2023-05-07T03:03:20;96884.94;;;12.38;100.00
6668;BME280;3370;47.712;9.082;2023-05-07T03:05:46;96883.25;;;12.37;100.00
6668;BME280;3370;47.712;9.082;2023-05-07T03:08:11;96887.59;;;12.37;100.00
6668;BME280;3370;47.712;9.082;2023-05-07T03:10:37;96884.34;;;12.33;100.00
6668;BME280;3370;47.712;9.082;2023-05-07T03:13:04;96878.75;;;12.25;100.00
6668;BME280;3370;47.712;9.082;2023-05-07T03:15:30;96888.50;;;12.20;100.00
6668;BME280;3370;47.712;9.082;2023-05-07T03:17:56;96878.38;;;12.17;100.00
6668;BME280;3370;47.712;9.082;2023-05-07T03:20:22;96888.09;;;12.12;100.00
6668;BME280;3370;47.712;9.082;2023-05-07T03:22:48;96884.09;;;12.06;100.00
6668;BME280;3370;47.712;9.082;2023-05-07T03:25:13;96888.25;;;12.08;100.00
6668;BME280;3370;47.712;9.082;2023-05-07T03:27:40;96884.19;;;12.04;100.00
6668;BME280;3370;47.712;9.082;2023-05-07T03:30:08;96884.25;;;12.03;100.00
6668;BME280;3370;47.712;9.082;2023-05-07T03:32:34;96887.00;;;12.16;100.00
6668;BME280;3370;47.712;9.082;2023-05-07T03:35:01;96879.84;;;12.05;100.00
6668;BME280;3370;47.712;9.082;2023-05-07T03:37:28;96884.91;;;11.91;100.00
6668;BME280;3370;47.712;9.082;2023-05-07T03:39:53;96886.41;;;11.95;100.00
6668;BME280;3370;47.712;9.082;2023-05-07T03:42:19;96888.22;;;11.93;100.00
6668;BME280;3370;47.712;9.082;2023-05-07T03:44:45;96888.59;;;11.85;100.00
6668;BME280;3370;47.712;9.082;2023-05-07T03:47:11;96895.72;;;11.97;100.00
6668;BME280;3370;47.712;9.082;2023-05-07T03:49:37;96891.03;;;11.88;100.00
6668;BME280;3370;47.712;9.082;2023-05-07T03:52:02;96892.41;;;11.78;100.00
6668;BME280;3370;47.712;9.082;2023-05-07T03:54:30;96901.38;;;11.70;100.00
6668;BME280;3370;47.712;9.082;2023-05-07T03:56:55;96898.78;;;11.70;100.00
6668;BME280;3370;47.712;9.082;2023-05-07T03:59:22;96900.63;;;11.68;100.00
6668;BME280;3370;47.712;9.082;2023-05-07T04:01:48;96903.44;;;11.64;100.00
6668;BME280;3370;47.712;9.082;2023-05-07T04:04:17;96907.06;;;11.60;100.00
6668;BME280;3370;47.712;9.082;2023-05-07T04:06:42;96900.19;;;11.60;100.00
6668;BME280;3370;47.712;9.082;2023-05-07T04:09:08;96899.78;;;11.68;100.00
6668;BME280;3370;47.712;9.082;2023-05-07T04:11:35;96902.38;;;11.68;100.00
6668;BME280;3370;47.712;9.082;2023-05-07T04:14:01;96914.25;;;11.70;100.00
6668;BME280;3370;47.712;9.082;2023-05-07T04:16:27;96907.28;;;11.73;100.00
6668;BME280;3370;47.712;9.082;2023-05-07T04:18:53;96896.97;;;11.73;100.00
6668;BME280;3370;47.712;9.082;2023-05-07T04:21:20;96898.31;;;11.80;100.00
6668;BME280;3370;47.712;9.082;2023-05-07T04:23:47;96905.00;;;11.84;100.00
6668;BME280;3370;47.712;9.082;2023-05-07T04:26:13;96894.69;;;11.84;100.00
6668;BME280;3370;47.712;9.082;2023-05-07T04:28:40;96897.50;;;11.79;100.00
6668;BME280;3370;47.712;9.082;2023-05-07T04:31:06;96894.00;;;11.80;100.00
6668;BME280;3370;47.712;9.082;2023-05-07T04:33:32;96904.31;;;11.80;100.00
6668;BME280;3370;47.712;9.082;2023-05-07T04:36:01;96906.72;;;11.83;100.00
6668;BME280;3370;47.712;9.082;2023-05-07T04:38:31;96902.97;;;11.89;100.00
6668;BME280;3370;47.712;9.082;2023-05-07T04:41:03;96904.53;;;11.93;100.00
6668;BME280;3370;47.712;9.082;2023-05-07T04:43:29;96906.03;;;11.97;100.00
6668;BME280;3370;47.712;9.082;2023-05-07T04:45:55;96905.09;;;11.98;100.00
6668;BME280;3370;47.712;9.082;2023-05-07T04:48:21;96904.72;;;12.06;100.00
6668;BME280;3370;47.712;9.082;2023-05-07T04:50:50;96902.81;;;12.10;100.00
6668;BME280;3370;47.712;9.082;2023-05-07T04:53:17;96905.19;;;12.13;100.00
6668;BME280;3370;47.712;9.082;2023-05-07T04:55:43;96898.06;;;12.18;100.00
6668;BME280;3370;47.712;9.082;2023-05-07T04:58:11;96903.78;;;12.23;100.00
6668;BME280;3370;47.712;9.082;2023-05-07T05:00:38;96908.97;;;12.39;100.00
6668;BME280;3370;47.712;9.082;2023-05-07T05:03:08;96911.19;;;12.45;100.00
6668;BME280;3370;47.712;9.082;2023-05-07T05:05:34;96928.34;;;12.46;100.00
6668;BME280;3370;47.712;9.082;2023-05-07T05:08:00;96930.00;;;12.47;100.00
6668;BME280;3370;47.712;9.082;2023-05-07T05:10:25;96930.00;;;12.47;100.00
6668;BME280;3370;47.712;9.082;2023-05-07T05:12:51;96941.47;;;12.41;100.00
6668;BME280;3370;47.712;9.082;2023-05-07T05:15:17;96938.66;;;12.46;100.00
6668;BME280;3370;47.712;9.082;2023-05-07T05:17:43;96943.47;;;12.52;100.00
6668;BME280;3370;47.712;9.082;2023-05-07T05:20:09;96938.00;;;12.58;100.00
6668;BME280;3370;47.712;9.082;2023-05-07T05:22:37;96948.13;;;12.61;100.00
6668;BME280;3370;47.712;9.082;2023-05-07T05:25:03;96945.22;;;12.68;100.00
6668;BME280;3370;47.712;9.082;2023-05-07T05:27:29;96946.63;;;12.73;100.00
6668;BME280;3370;47.712;9.082;2023-05-07T05:29:55;96939.47;;;12.78;100.00
6668;BME280;3370;47.712;9.082;2023-05-07T05:32:21;96944.28;;;12.84;100.00
6668;BME280;3370;47.712;9.082;2023-05-07T05:34:47;96947.94;;;12.96;100.00
6668;BME280;3370;47.712;9.082;2023-05-07T05:37:12;96944.50;;;12.96;100.00
6668;BME280;3370;47.712;9.082;2023-05-07T05:39:38;96949.34;;;13.02;100.00
6668;BME280;3370;47.712;9.082;2023-05-07T05:42:04;96953.41;;;13.06;100.00
6668;BME280;3370;47.712;9.082;2023-05-07T05:44:30;96951.84;;;13.18;100.00
6668;BME280;3370;47.712;9.082;2023-05-07T05:46:55;96950.88;;;13.20;100.00
6668;BME280;3370;47.712;9.082;2023-05-07T05:49:23;96947.19;;;13.24;100.00
6668;BME280;3370;47.712;9.082;2023-05-07T05:51:48;96948.84;;;13.26;100.00
6668;BME280;3370;47.712;9.082;2023-05-07T05:54:14;96949.03;;;13.22;100.00
6668;BME280;3370;47.712;9.082;2023-05-07T05:56:41;96947.75;;;13.30;100.00
6668;BME280;3370;47.712;9.082;2023-05-07T05:59:07;96951.69;;;13.37;100.00
6668;BME280;3370;47.712;9.082;2023-05-07T06:01:33;96946.63;;;13.50;100.00
6668;BME280;3370;47.712;9.082;2023-05-07T06:03:59;96950.25;;;13.61;100.00
6668;BME280;3370;47.712;9.082;2023-05-07T06:06:25;96947.28;;;13.53;100.00
6668;BME280;3370;47.712;9.082;2023-05-07T06:08:51;96952.19;;;13.58;98.11
6668;BME280;3370;47.712;9.082;2023-05-07T06:11:17;96943.53;;;13.73;97.49
6668;BME280;3370;47.712;9.082;2023-05-07T06:13:42;96945.28;;;13.87;96.85
6668;BME280;3370;47.712;9.082;2023-05-07T06:16:08;96946.75;;;13.91;96.86
6668;BME280;3370;47.712;9.082;2023-05-07T06:18:34;96943.78;;;13.97;95.24
6668;BME280;3370;47.712;9.082;2023-05-07T06:21:02;96950.81;;;13.95;94.30
6668;BME280;3370;47.712;9.082;2023-05-07T06:23:27;96951.56;;;13.97;94.21
6668;BME280;3370;47.712;9.082;2023-05-07T06:25:53;96962.91;;;13.95;96.80
6668;BME280;3370;47.712;9.082;2023-05-07T06:28:19;96964.13;;;13.89;98.14
6668;BME280;3370;47.712;9.082;2023-05-07T06:30:45;96964.47;;;13.83;97.35
6668;BME280;3370;47.712;9.082;2023-05-07T06:33:11;96964.13;;;13.89;96.65
6668;BME280;3370;47.712;9.082;2023-05-07T06:35:37;96973.25;;;13.80;99.27
6668;BME280;3370;47.712;9.082;2023-05-07T06:38:02;96973.81;;;13.86;97.64
6668;BME280;3370;47.712;9.082;2023-05-07T06:40:28;96975.84;;;13.80;95.59
6668;BME280;3370;47.712;9.082;2023-05-07T06:42:54;96978.53;;;14.08;96.42
6668;BME280;3370;47.712;9.082;2023-05-07T06:45:20;96986.44;;;14.19;97.86
6668;BME280;3370;47.712;9.082;2023-05-07T06:47:46;96987.56;;;14.00;96.57
6668;BME280;3370;47.712;9.082;2023-05-07T06:50:12;96990.16;;;14.15;96.41
6668;BME280;3370;47.712;9.082;2023-05-07T06:52:38;96986.09;;;14.25;97.18
6668;BME280;3370;47.712;9.082;2023-05-07T06:55:04;96987.47;;;14.16;94.88
6668;BME280;3370;47.712;9.082;2023-05-07T06:57:30;96984.44;;;14.24;95.48
6668;BME280;3370;47.712;9.082;2023-05-07T06:59:56;96991.44;;;14.22;98.59
6668;BME280;3370;47.712;9.082;2023-05-07T07:02:22;96995.16;;;14.18;96.23
6668;BME280;3370;47.712;9.082;2023-05-07T07:04:47;96991.06;;;14.28;95.97
6668;BME280;3370;47.712;9.082;2023-05-07T07:07:13;96990.06;;;14.31;95.36
6668;BME280;3370;47.712;9.082;2023-05-07T07:09:39;96993.38;;;14.18;93.81
6668;BME280;3370;47.712;9.082;2023-05-07T07:12:05;96988.03;;;14.36;91.91
6668;BME280;3370;47.712;9.082;2023-05-07T07:14:31;96987.66;;;14.42;91.41
6668;BME280;3370;47.712;9.082;2023-05-07T07:16:56;96996.78;;;14.48;92.95
6668;BME280;3370;47.712;9.082;2023-05-07T07:19:22;96984.97;;;14.44;90.31
6668;BME280;3370;47.712;9.082;2023-05-07T07:21:48;96987.72;;;14.55;88.71
6668;BME280;3370;47.712;9.082;2023-05-07T07:24:14;96994.72;;;14.82;85.54
6668;BME280;3370;47.712;9.082;2023-05-07T07:26:44;96996.06;;;14.60;86.69
6668;BME280;3370;47.712;9.082;2023-05-07T07:29:10;96995.63;;;14.81;87.87
6668;BME280;3370;47.712;9.082;2023-05-07T07:31:36;96991.31;;;15.08;88.12
6668;BME280;3370;47.712;9.082;2023-05-07T07:34:02;97003.63;;;15.05;85.71
6668;BME280;3370;47.712;9.082;2023-05-07T07:36:28;97000.44;;;15.14;86.68
6668;BME280;3370;47.712;9.082;2023-05-07T07:38:54;97004.78;;;15.13;83.92
6668;BME280;3370;47.712;9.082;2023-05-07T07:41:20;97004.41;;;15.20;85.68
6668;BME280;3370;47.712;9.082;2023-05-07T07:43:45;97000.88;;;15.33;84.54
6668;BME280;3370;47.712;9.082;2023-05-07T07:46:12;97001.03;;;15.45;84.93
6668;BME280;3370;47.712;9.082;2023-05-07T07:48:38;96994.56;;;15.65;83.77
6668;BME280;3370;47.712;9.082;2023-05-07T07:51:04;96993.78;;;15.90;81.84
6668;BME280;3370;47.712;9.082;2023-05-07T07:53:30;96993.34;;;16.09;82.16
6668;BME280;3370;47.712;9.082;2023-05-07T07:55:56;96987.09;;;16.12;79.32
6668;BME280;3370;47.712;9.082;2023-05-07T07:58:22;96980.66;;;16.30;78.64
6668;BME280;3370;47.712;9.082;2023-05-07T08:00:48;96988.09;;;16.47;79.27
6668;BME280;3370;47.712;9.082;2023-05-07T08:03:14;96994.38;;;16.19;80.76
6668;BME280;3370;47.712;9.082;2023-05-07T08:05:42;96982.63;;;16.39;81.75
6668;BME280;3370;47.712;9.082;2023-05-07T08:08:08;96991.19;;;16.53;81.49
6668;BME280;3370;47.712;9.082;2023-05-07T08:10:34;96989.91;;;16.71;79.54
6668;BME280;3370;47.712;9.082;2023-05-07T08:13:00;96990.31;;;16.78;81.39
6668;BME280;3370;47.712;9.082;2023-05-07T08:15:27;96994.66;;;16.90;81.42
6668;BME280;3370;47.712;9.082;2023-05-07T08:17:53;97000.78;;;16.89;77.31
6668;BME280;3370;47.712;9.082;2023-05-07T08:20:18;97005.41;;;16.60;77.74
6668;BME280;3370;47.712;9.082;2023-05-07T08:22:44;97004.88;;;16.67;77.42
6668;BME280;3370;47.712;9.082;2023-05-07T08:25:10;97010.25;;;16.77;78.55
6668;BME280;3370;47.712;9.082;2023-05-07T08:27:36;97004.84;;;16.93;79.57
6668;BME280;3370;47.712;9.082;2023-05-07T08:30:03;97005.81;;;17.03;78.47
6668;BME280;3370;47.712;9.082;2023-05-07T08:32:29;97001.06;;;16.97;74.95
6668;BME280;3370;47.712;9.082;2023-05-07T08:34:55;97006.16;;;17.23;75.11
6668;BME280;3370;47.712;9.082;2023-05-07T08:37:21;97001.97;;;17.33;73.66
6668;BME280;3370;47.712;9.082;2023-05-07T08:39:46;97011.31;;;17.47;74.13
6668;BME280;3370;47.712;9.082;2023-05-07T08:42:13;97010.97;;;17.40;74.43
6668;BME280;3370;47.712;9.082;2023-05-07T08:44:45;97012.22;;;17.70;74.09
6668;BME280;3370;47.712;9.082;2023-05-07T08:47:12;97004.56;;;17.80;74.13
6668;BME280;3370;47.712;9.082;2023-05-07T08:49:38;97001.66;;;17.96;71.10
6668;BME280;3370;47.712;9.082;2023-05-07T08:52:05;96998.25;;;18.18;71.00
6668;BME280;3370;47.712;9.082;2023-05-07T08:54:31;97008.78;;;18.28;68.47
6668;BME280;3370;47.712;9.082;2023-05-07T08:56:57;97009.38;;;18.09;69.20
6668;BME280;3370;47.712;9.082;2023-05-07T08:59:23;97002.63;;;18.06;70.78
6668;BME280;3370;47.712;9.082;2023-05-07T09:01:49;97005.13;;;18.30;70.28
6668;BME280;3370;47.712;9.082;2023-05-07T09:04:15;96997.91;;;18.56;69.16
6668;BME280;3370;47.712;9.082;2023-05-07T09:06:40;96997.38;;;18.85;69.33
6668;BME280;3370;47.712;9.082;2023-05-07T09:09:07;96998.50;;;19.15;67.51
6668;BME280;3370;47.712;9.082;2023-05-07T09:11:33;96994.44;;;19.22;71.48
6668;BME280;3370;47.712;9.082;2023-05-07T09:13:59;97003.03;;;19.34;71.51
6668;BME280;3370;47.712;9.082;2023-05-07T09:16:28;97005.28;;;19.39;72.62
6668;BME280;3370;47.712;9.082;2023-05-07T09:18:57;96991.28;;;19.40;68.42
6668;BME280;3370;47.712;9.082;2023-05-07T09:21:23;96993.47;;;19.34;71.76
6668;BME280;3370;47.712;9.082;2023-05-07T09:23:54;96995.78;;;19.49;70.80
6668;BME280;3370;47.712;9.082;2023-05-07T09:26:24;96991.03;;;19.43;67.60
6668;BME280;3370;47.712;9.082;2023-05-07T09:28:50;97001.38;;;19.01;69.76
6668;BME280;3370;47.712;9.082;2023-05-07T09:31:16;96995.00;;;18.93;71.38
6668;BME280;3370;47.712;9.082;2023-05-07T09:33:42;96996.25;;;19.10;69.32
6668;BME280;3370;47.712;9.082;2023-05-07T09:36:09;96996.47;;;19.19;67.00
6668;BME280;3370;47.712;9.082;2023-05-07T09:38:37;96999.72;;;19.00;64.30
6668;BME280;3370;47.712;9.082;2023-05-07T09:41:12;96995.47;;;18.99;66.75
6668;BME280;3370;47.712;9.082;2023-05-07T09:43:39;96996.88;;;19.03;63.37
6668;BME280;3370;47.712;9.082;2023-05-07T09:46:14;96991.97;;;19.21;62.66
6668;BME280;3370;47.712;9.082;2023-05-07T09:48:43;96994.69;;;19.19;64.36
6668;BME280;3370;47.712;9.082;2023-05-07T09:51:25;96996.94;;;19.45;63.05
6668;BME280;3370;47.712;9.082;2023-05-07T09:53:54;96997.63;;;19.58;59.96
6668;BME280;3370;47.712;9.082;2023-05-07T09:56:21;96996.72;;;19.69;61.68
6668;BME280;3370;47.712;9.082;2023-05-07T09:58:49;96981.72;;;19.82;63.05
6668;BME280;3370;47.712;9.082;2023-05-07T10:01:17;96988.22;;;20.19;60.73
6668;BME280;3370;47.712;9.082;2023-05-07T10:03:45;96979.97;;;20.14;62.47
6668;BME280;3370;47.712;9.082;2023-05-07T10:06:13;96981.00;;;20.32;62.25
6668;BME280;3370;47.712;9.082;2023-05-07T10:08:40;96985.25;;;20.23;61.75
6668;BME280;3370;47.712;9.082;2023-05-07T10:11:08;96981.34;;;20.18;60.26
6668;BME280;3370;47.712;9.082;2023-05-07T10:13:35;96976.00;;;20.19;61.35
6668;BME280;3370;47.712;9.082;2023-05-07T10:16:05;96967.53;;;20.27;60.57
6668;BME280;3370;47.712;9.082;2023-05-07T10:18:32;96968.69;;;20.44;59.62
6668;BME280;3370;47.712;9.082;2023-05-07T10:21:11;96962.56;;;20.64;59.42
6668;BME280;3370;47.712;9.082;2023-05-07T10:23:40;96958.47;;;20.62;62.42
6668;BME280;3370;47.712;9.082;2023-05-07T10:26:08;96959.84;;;20.66;60.60
6668;BME280;3370;47.712;9.082;2023-05-07T10:28:38;96951.63;;;21.00;64.10
6668;BME280;3370;47.712;9.082;2023-05-07T10:34:20;96951.59;;;20.71;60.10
6668;BME280;3370;47.712;9.082;2023-05-07T10:36:48;96951.56;;;20.61;60.51
6668;BME280;3370;47.712;9.082;2023-05-07T10:39:15;96944.88;;;20.87;59.34
6668;BME280;3370;47.712;9.082;2023-05-07T10:41:41;96938.16;;;20.95;58.89
6668;BME280;3370;47.712;9.082;2023-05-07T10:44:07;96951.09;;;21.06;57.98
6668;BME280;3370;47.712;9.082;2023-05-07T10:46:33;96939.94;;;21.23;60.13
6668;BME280;3370;47.712;9.082;2023-05-07T10:51:27;96936.16;;;21.75;56.91
6668;BME280;3370;47.712;9.082;2023-05-07T10:54:19;96933.38;;;21.86;57.97
6668;BME280;3370;47.712;9.082;2023-05-07T10:56:45;96930.75;;;21.86;56.48
6668;BME280;3370;47.712;9.082;2023-05-07T11:02:00;96923.06;;;22.32;55.81
6668;BME280;3370;47.712;9.082;2023-05-07T11:04:29;96927.91;;;22.90;53.57
6668;BME280;3370;47.712;9.082;2023-05-07T11:12:18;96920.44;;;22.77;52.36
6668;BME280;3370;47.712;9.082;2023-05-07T11:15:13;96919.94;;;22.64;52.38
6668;BME280;3370;47.712;9.082;2023-05-07T11:18:13;96923.28;;;22.66;55.65
6668;BME280;3370;47.712;9.082;2023-05-07T11:20:49;96928.06;;;22.71;54.09
6668;BME280;3370;47.712;9.082;2023-05-07T11:26:05;96927.63;;;23.11;52.58
6668;BME280;3370;47.712;9.082;2023-05-07T11:28:41;96923.88;;;22.96;52.26
6668;BME280;3370;47.712;9.082;2023-05-07T11:31:08;96931.91;;;23.30;51.45
6668;BME280;3370;47.712;9.082;2023-05-07T11:33:35;96925.84;;;23.30;51.17
6668;BME280;3370;47.712;9.082;2023-05-07T11:36:05;96923.81;;;23.94;51.84
6668;BME280;3370;47.712;9.082;2023-05-07T11:38:37;96922.38;;;24.85;50.24
6668;BME280;3370;47.712;9.082;2023-05-07T11:41:04;96914.69;;;25.24;47.87
6668;BME280;3370;47.712;9.082;2023-05-07T11:43:31;96924.31;;;23.89;49.11
6668;BME280;3370;47.712;9.082;2023-05-07T11:46:10;96914.47;;;24.26;51.57
6668;BME280;3370;47.712;9.082;2023-05-07T11:48:37;96909.16;;;24.09;53.26
6668;BME280;3370;47.712;9.082;2023-05-07T11:51:05;96901.88;;;24.46;52.12
6668;BME280;3370;47.712;9.082;2023-05-07T11:53:40;96905.84;;;24.50;49.97
6668;BME280;3370;47.712;9.082;2023-05-07T11:56:08;96901.66;;;23.88;49.85
6668;BME280;3370;47.712;9.082;2023-05-07T11:58:34;96901.94;;;24.11;50.73
6668;BME280;3370;47.712;9.082;2023-05-07T12:01:00;96911.50;;;24.29;51.66
6668;BME280;3370;47.712;9.082;2023-05-07T12:03:25;96915.94;;;23.24;52.21
6668;BME280;3370;47.712;9.082;2023-05-07T12:05:51;96905.94;;;23.45;53.08
6668;BME280;3370;47.712;9.082;2023-05-07T12:08:18;96903.91;;;23.83;51.96
6668;BME280;3370;47.712;9.082;2023-05-07T12:10:46;96899.88;;;23.45;51.56
6668;BME280;3370;47.712;9.082;2023-05-07T12:13:21;96912.91;;;23.10;51.87
6668;BME280;3370;47.712;9.082;2023-05-07T12:15:57;96907.47;;;22.94;53.44
6668;BME280;3370;47.712;9.082;2023-05-07T12:18:23;96908.13;;;22.60;51.98
6668;BME280;3370;47.712;9.082;2023-05-07T12:20:50;96910.34;;;22.55;53.21
6668;BME280;3370;47.712;9.082;2023-05-07T12:23:17;96902.41;;;22.47;53.16
6668;BME280;3370;47.712;9.082;2023-05-07T12:25:43;96901.94;;;22.97;54.16
6668;BME280;3370;47.712;9.082;2023-05-07T12:28:17;96895.63;;;23.08;53.82
6668;BME280;3370;47.712;9.082;2023-05-07T12:30:45;96890.03;;;23.21;53.48
6668;BME280;3370;47.712;9.082;2023-05-07T12:33:11;96881.25;;;23.30;51.19
6668;BME280;3370;47.712;9.082;2023-05-07T12:35:42;96892.13;;;23.17;53.77
6668;BME280;3370;47.712;9.082;2023-05-07T12:38:09;96891.75;;;23.12;54.92
6668;BME280;3370;47.712;9.082;2023-05-07T12:40:36;96889.00;;;23.13;54.91
6668;BME280;3370;47.712;9.082;2023-05-07T12:43:02;96885.59;;;23.03;54.26
6668;BME280;3370;47.712;9.082;2023-05-07T12:45:28;96884.41;;;22.97;55.61
6668;BME280;3370;47.712;9.082;2023-05-07T12:47:54;96885.88;;;22.64;52.79
6668;BME280;3370;47.712;9.082;2023-05-07T12:50:20;96881.69;;;22.71;55.61
6668;BME280;3370;47.712;9.082;2023-05-07T12:52:48;96883.34;;;22.72;54.13
6668;BME280;3370;47.712;9.082;2023-05-07T12:55:15;96885.38;;;22.78;55.49
6668;BME280;3370;47.712;9.082;2023-05-07T12:57:51;96878.63;;;22.58;55.21
6668;BME280;3370;47.712;9.082;2023-05-07T13:00:36;96884.00;;;22.56;56.25
6668;BME280;3370;47.712;9.082;2023-05-07T13:03:02;96884.16;;;22.73;56.85
6668;BME280;3370;47.712;9.082;2023-05-07T13:05:28;96884.41;;;22.62;54.60
6668;BME280;3370;47.712;9.082;2023-05-07T13:07:55;96882.41;;;22.46;54.10
6668;BME280;3370;47.712;9.082;2023-05-07T13:10:23;96887.09;;;22.52;57.81
6668;BME280;3370;47.712;9.082;2023-05-07T13:12:49;96883.31;;;22.36;56.11
6668;BME280;3370;47.712;9.082;2023-05-07T13:15:16;96888.34;;;22.48;54.29
6668;BME280;3370;47.712;9.082;2023-05-07T13:17:41;96890.00;;;22.49;55.22
6668;BME280;3370;47.712;9.082;2023-05-07T13:20:10;96893.38;;;22.95;55.55
6668;BME280;3370;47.712;9.082;2023-05-07T13:22:37;96890.25;;;22.73;54.18
6668;BME280;3370;47.712;9.082;2023-05-07T13:25:03;96892.78;;;22.65;54.52
6668;BME280;3370;47.712;9.082;2023-05-07T13:27:28;96887.94;;;23.50;52.72
6668;BME280;3370;47.712;9.082;2023-05-07T13:29:56;96888.41;;;23.72;52.95
6668;BME280;3370;47.712;9.082;2023-05-07T13:32:22;96889.56;;;24.04;53.56